sensor_id;sensor_type;location;lat;lon;timestamp;pressure;altitude;pressure_sealevel;temperature;humidity
52653;BME280;39353;42.864;12.014;2023-10-19T00:00:55;96955.66;;;24.11;51.31
52653;BME280;39353;42.864;12.014;2023-10-19T00:03:35;96954.02;;;24.11;51.42
52653;BME280;39353;42.864;12.014;2023-10-19T00:06:02;96950.60;;;24.10;51.32
52653;BME280;39353;42.864;12.014;2023-10-19T00:08:29;96948.85;;;24.10;51.42
52653;BME280;39353;42.864;12.014;2023-10-19T00:11:03;96937.79;;;24.09;51.22
52653;BME280;39353;42.864;12.014;2023-10-19T00:13:35;96920.23;;;24.08;51.42
52653;BME280;39353;42.864;12.014;2023-10-19T00:16:02;96912.02;;;24.08;51.65
52653;BME280;39353;42.864;12.014;2023-10-19T00:18:38;96906.02;;;24.07;51.60
52653;BME280;39353;42.864;12.014;2023-10-19T00:21:09;96877.13;;;24.06;51.40
52653;BME280;39353;42.864;12.014;2023-10-19T00:23:46;96852.64;;;24.06;51.36
52653;BME280;39353;42.864;12.014;2023-10-19T00:26:14;96855.66;;;24.07;51.59
52653;BME280;39353;42.864;12.014;2023-10-19T00:28:52;96849.13;;;24.07;51.56
52653;BME280;39353;42.864;12.014;2023-10-19T00:31:23;96839.86;;;24.06;51.59
52653;BME280;39353;42.864;12.014;2023-10-19T00:33:50;96832.90;;;24.07;51.51
52653;BME280;39353;42.864;12.014;2023-10-19T00:36:22;96837.55;;;24.05;51.45
52653;BME280;39353;42.864;12.014;2023-10-19T00:38:50;96835.48;;;24.05;51.32
52653;BME280;39353;42.864;12.014;2023-10-19T00:41:25;96836.67;;;24.04;51.37
52653;BME280;39353;42.864;12.014;2023-10-19T00:43:57;96836.44;;;24.03;51.36
52653;BME280;39353;42.864;12.014;2023-10-19T00:46:24;96835.23;;;24.04;51.38
52653;BME280;39353;42.864;12.014;2023-10-19T00:49:02;96831.40;;;24.04;51.34
52653;BME280;39353;42.864;12.014;2023-10-19T00:51:36;96828.67;;;24.03;51.38
52653;BME280;39353;42.864;12.014;2023-10-19T00:56:45;96826.58;;;24.03;51.22
52653;BME280;39353;42.864;12.014;2023-10-19T00:59:18;96820.16;;;24.03;51.22
52653;BME280;39353;42.864;12.014;2023-10-19T01:01:54;96813.09;;;24.03;51.48
52653;BME280;39353;42.864;12.014;2023-10-19T01:04:23;96812.38;;;24.03;51.27
52653;BME280;39353;42.864;12.014;2023-10-19T01:06:50;96803.00;;;24.03;51.47
52653;BME280;39353;42.864;12.014;2023-10-19T01:09:36;96794.13;;;24.02;51.35
52653;BME280;39353;42.864;12.014;2023-10-19T01:12:03;96787.38;;;24.03;51.31
52653;BME280;39353;42.864;12.014;2023-10-19T01:15:14;96778.07;;;24.02;51.30
52653;BME280;39353;42.864;12.014;2023-10-19T01:17:49;96774.95;;;24.02;51.34
52653;BME280;39353;42.864;12.014;2023-10-19T01:20:21;96769.36;;;24.02;51.29
52653;BME280;39353;42.864;12.014;2023-10-19T01:23:02;96764.42;;;24.02;51.33
52653;BME280;39353;42.864;12.014;2023-10-19T01:28:12;96752.75;;;24.02;51.28
52653;BME280;39353;42.864;12.014;2023-10-19T01:30:44;96755.43;;;24.02;51.44
52653;BME280;39353;42.864;12.014;2023-10-19T01:33:11;96748.36;;;24.02;51.22
52653;BME280;39353;42.864;12.014;2023-10-19T01:35:42;96740.85;;;24.01;51.37
52653;BME280;39353;42.864;12.014;2023-10-19T01:38:29;96736.52;;;24.01;51.24
52653;BME280;39353;42.864;12.014;2023-10-19T01:41:01;96724.52;;;24.00;51.26
52653;BME280;39353;42.864;12.014;2023-10-19T01:43:33;96722.48;;;24.01;51.18
52653;BME280;39353;42.864;12.014;2023-10-19T01:46:00;96719.64;;;24.00;51.18
52653;BME280;39353;42.864;12.014;2023-10-19T01:48:31;96713.60;;;24.00;51.24
52653;BME280;39353;42.864;12.014;2023-10-19T01:51:03;96712.34;;;24.00;51.19
52653;BME280;39353;42.864;12.014;2023-10-19T01:53:34;96711.56;;;23.99;51.03
52653;BME280;39353;42.864;12.014;2023-10-19T01:56:12;96703.90;;;23.99;51.06
52653;BME280;39353;42.864;12.014;2023-10-19T01:58:41;96701.37;;;23.99;51.06
52653;BME280;39353;42.864;12.014;2023-10-19T02:01:09;96695.17;;;23.99;51.14
52653;BME280;39353;42.864;12.014;2023-10-19T02:03:43;96684.44;;;23.99;51.04
52653;BME280;39353;42.864;12.014;2023-10-19T02:06:14;96679.95;;;23.98;50.91
52653;BME280;39353;42.864;12.014;2023-10-19T02:08:51;96672.22;;;23.99;51.16
52653;BME280;39353;42.864;12.014;2023-10-19T02:11:20;96669.80;;;23.99;51.29
52653;BME280;39353;42.864;12.014;2023-10-19T02:13:50;96674.95;;;23.99;51.19
52653;BME280;39353;42.864;12.014;2023-10-19T02:16:18;96681.10;;;23.98;51.16
52653;BME280;39353;42.864;12.014;2023-10-19T02:18:59;96681.04;;;23.98;51.15
52653;BME280;39353;42.864;12.014;2023-10-19T02:21:27;96679.84;;;23.98;51.09
52653;BME280;39353;42.864;12.014;2023-10-19T02:23:59;96680.16;;;23.98;51.11
52653;BME280;39353;42.864;12.014;2023-10-19T02:26:25;96682.02;;;23.98;51.03
52653;BME280;39353;42.864;12.014;2023-10-19T02:28:53;96675.17;;;23.97;51.11
52653;BME280;39353;42.864;12.014;2023-10-19T02:31:20;96672.25;;;23.97;51.14
52653;BME280;39353;42.864;12.014;2023-10-19T02:33:48;96676.15;;;23.97;51.12
52653;BME280;39353;42.864;12.014;2023-10-19T02:36:19;96677.89;;;23.96;50.99
52653;BME280;39353;42.864;12.014;2023-10-19T02:38:47;96685.85;;;23.97;50.93
52653;BME280;39353;42.864;12.014;2023-10-19T02:41:18;96685.52;;;23.96;51.18
52653;BME280;39353;42.864;12.014;2023-10-19T02:43:48;96686.70;;;23.96;50.96
52653;BME280;39353;42.864;12.014;2023-10-19T02:46:31;96688.91;;;23.96;51.05
52653;BME280;39353;42.864;12.014;2023-10-19T02:49:03;96702.28;;;23.94;51.08
52653;BME280;39353;42.864;12.014;2023-10-19T02:51:31;96707.42;;;23.94;51.13
52653;BME280;39353;42.864;12.014;2023-10-19T02:53:59;96709.67;;;23.94;51.13
52653;BME280;39353;42.864;12.014;2023-10-19T02:56:29;96715.29;;;23.93;51.14
52653;BME280;39353;42.864;12.014;2023-10-19T02:58:56;96710.11;;;23.93;51.13
52653;BME280;39353;42.864;12.014;2023-10-19T03:01:31;96697.44;;;23.94;51.10
52653;BME280;39353;42.864;12.014;2023-10-19T03:04:02;96688.77;;;23.93;51.21
52653;BME280;39353;42.864;12.014;2023-10-19T03:06:31;96674.85;;;23.92;51.26
52653;BME280;39353;42.864;12.014;2023-10-19T03:09:05;96659.08;;;23.92;51.29
52653;BME280;39353;42.864;12.014;2023-10-19T03:11:40;96662.81;;;23.92;51.21
52653;BME280;39353;42.864;12.014;2023-10-19T03:14:08;96665.77;;;23.93;51.11
52653;BME280;39353;42.864;12.014;2023-10-19T03:16:37;96646.27;;;23.93;51.07
52653;BME280;39353;42.864;12.014;2023-10-19T03:19:05;96643.36;;;23.93;51.11
52653;BME280;39353;42.864;12.014;2023-10-19T03:21:31;96642.21;;;23.93;51.14
52653;BME280;39353;42.864;12.014;2023-10-19T03:24:09;96651.46;;;23.92;51.17
52653;BME280;39353;42.864;12.014;2023-10-19T03:26:40;96642.64;;;23.93;51.23
52653;BME280;39353;42.864;12.014;2023-10-19T03:29:16;96629.39;;;23.92;51.16
52653;BME280;39353;42.864;12.014;2023-10-19T03:31:49;96620.83;;;23.92;51.10
52653;BME280;39353;42.864;12.014;2023-10-19T03:34:18;96612.61;;;23.92;51.02
52653;BME280;39353;42.864;12.014;2023-10-19T03:36:44;96605.54;;;23.92;51.21
52653;BME280;39353;42.864;12.014;2023-10-19T03:39:12;96598.69;;;23.91;51.01
52653;BME280;39353;42.864;12.014;2023-10-19T03:41:42;96598.36;;;23.91;51.00
52653;BME280;39353;42.864;12.014;2023-10-19T03:44:11;96598.91;;;23.91;50.98
52653;BME280;39353;42.864;12.014;2023-10-19T03:46:39;96597.87;;;23.91;51.11
52653;BME280;39353;42.864;12.014;2023-10-19T03:49:20;96591.28;;;23.91;50.96
52653;BME280;39353;42.864;12.014;2023-10-19T03:51:47;96585.27;;;23.90;50.92
52653;BME280;39353;42.864;12.014;2023-10-19T03:54:28;96574.52;;;23.90;50.92
52653;BME280;39353;42.864;12.014;2023-10-19T03:56:55;96562.69;;;23.89;51.02
52653;BME280;39353;42.864;12.014;2023-10-19T03:59:23;96555.00;;;23.89;50.94
52653;BME280;39353;42.864;12.014;2023-10-19T04:01:56;96558.08;;;23.89;50.89
52653;BME280;39353;42.864;12.014;2023-10-19T04:04:22;96551.94;;;23.88;50.79
52653;BME280;39353;42.864;12.014;2023-10-19T04:06:49;96558.18;;;23.88;50.94
52653;BME280;39353;42.864;12.014;2023-10-19T04:09:24;96554.84;;;23.87;50.86
52653;BME280;39353;42.864;12.014;2023-10-19T04:11:55;96556.31;;;23.87;51.08
52653;BME280;39353;42.864;12.014;2023-10-19T04:14:22;96570.02;;;23.87;50.96
52653;BME280;39353;42.864;12.014;2023-10-19T04:16:49;96578.45;;;23.87;50.92
52653;BME280;39353;42.864;12.014;2023-10-19T04:19:16;96589.09;;;23.88;50.99
52653;BME280;39353;42.864;12.014;2023-10-19T04:21:43;96587.55;;;23.88;50.93
52653;BME280;39353;42.864;12.014;2023-10-19T04:24:17;96584.52;;;23.88;50.97
52653;BME280;39353;42.864;12.014;2023-10-19T04:26:45;96586.23;;;23.88;50.97
52653;BME280;39353;42.864;12.014;2023-10-19T04:29:14;96585.79;;;23.88;51.06
52653;BME280;39353;42.864;12.014;2023-10-19T04:31:45;96593.36;;;23.88;51.10
52653;BME280;39353;42.864;12.014;2023-10-19T04:34:21;96596.20;;;23.88;51.05
52653;BME280;39353;42.864;12.014;2023-10-19T04:36:48;96587.94;;;23.88;50.88
52653;BME280;39353;42.864;12.014;2023-10-19T04:39:15;96585.41;;;23.88;50.84
52653;BME280;39353;42.864;12.014;2023-10-19T04:41:46;96591.39;;;23.88;51.16
52653;BME280;39353;42.864;12.014;2023-10-19T04:44:15;96588.65;;;23.88;50.86
52653;BME280;39353;42.864;12.014;2023-10-19T04:46:42;96594.08;;;23.89;51.02
52653;BME280;39353;42.864;12.014;2023-10-19T04:49:09;96601.09;;;23.88;51.01
52653;BME280;39353;42.864;12.014;2023-10-19T04:51:35;96604.41;;;23.88;50.98
52653;BME280;39353;42.864;12.014;2023-10-19T04:54:06;96601.67;;;23.88;51.02
52653;BME280;39353;42.864;12.014;2023-10-19T04:56:35;96602.88;;;23.87;50.89
52653;BME280;39353;42.864;12.014;2023-10-19T04:59:03;96597.13;;;23.87;50.98
52653;BME280;39353;42.864;12.014;2023-10-19T05:01:31;96593.57;;;23.86;50.93
52653;BME280;39353;42.864;12.014;2023-10-19T05:04:00;96597.40;;;23.86;50.99
52653;BME280;39353;42.864;12.014;2023-10-19T05:06:27;96601.13;;;23.86;51.09
52653;BME280;39353;42.864;12.014;2023-10-19T05:08:54;96601.29;;;23.86;51.00
52653;BME280;39353;42.864;12.014;2023-10-19T05:11:21;96597.13;;;23.86;51.05
52653;BME280;39353;42.864;12.014;2023-10-19T05:13:48;96592.19;;;23.86;51.07
52653;BME280;39353;42.864;12.014;2023-10-19T05:16:14;96596.52;;;23.86;51.04
52653;BME280;39353;42.864;12.014;2023-10-19T05:18:41;96592.14;;;23.86;51.04
52653;BME280;39353;42.864;12.014;2023-10-19T05:21:08;96595.48;;;23.86;51.06
52653;BME280;39353;42.864;12.014;2023-10-19T05:23:36;96594.17;;;23.86;50.94
52653;BME280;39353;42.864;12.014;2023-10-19T05:26:04;96594.16;;;23.86;51.04
52653;BME280;39353;42.864;12.014;2023-10-19T05:28:33;96595.81;;;23.86;50.88
52653;BME280;39353;42.864;12.014;2023-10-19T05:30:59;96601.40;;;23.86;51.06
52653;BME280;39353;42.864;12.014;2023-10-19T05:33:29;96595.48;;;23.87;50.95
52653;BME280;39353;42.864;12.014;2023-10-19T05:35:56;96582.39;;;23.86;51.00
52653;BME280;39353;42.864;12.014;2023-10-19T05:38:23;96579.77;;;23.86;50.97
52653;BME280;39353;42.864;12.014;2023-10-19T05:40:50;96585.34;;;23.85;50.95
52653;BME280;39353;42.864;12.014;2023-10-19T05:43:18;96595.42;;;23.85;50.91
52653;BME280;39353;42.864;12.014;2023-10-19T05:45:45;96600.52;;;23.85;51.06
52653;BME280;39353;42.864;12.014;2023-10-19T05:48:15;96596.80;;;23.86;51.17
52653;BME280;39353;42.864;12.014;2023-10-19T05:50:43;96592.69;;;23.85;51.09
52653;BME280;39353;42.864;12.014;2023-10-19T05:53:09;96604.79;;;23.85;51.10
52653;BME280;39353;42.864;12.014;2023-10-19T05:55:37;96613.44;;;23.83;50.94
52653;BME280;39353;42.864;12.014;2023-10-19T05:58:06;96610.40;;;23.76;51.17
52653;BME280;39353;42.864;12.014;2023-10-19T06:00:32;96609.55;;;23.73;51.18
52653;BME280;39353;42.864;12.014;2023-10-19T06:03:01;96611.90;;;23.69;51.33
52653;BME280;39353;42.864;12.014;2023-10-19T06:05:28;96616.05;;;23.66;51.25
52653;BME280;39353;42.864;12.014;2023-10-19T06:07:56;96618.02;;;23.65;51.36
52653;BME280;39353;42.864;12.014;2023-10-19T06:10:28;96612.54;;;23.64;51.22
52653;BME280;39353;42.864;12.014;2023-10-19T06:12:55;96606.17;;;23.63;51.34
52653;BME280;39353;42.864;12.014;2023-10-19T06:15:24;96597.58;;;23.64;51.59
52653;BME280;39353;42.864;12.014;2023-10-19T06:17:51;96594.63;;;23.64;51.89
52653;BME280;39353;42.864;12.014;2023-10-19T06:20:19;96590.46;;;23.64;51.76
52653;BME280;39353;42.864;12.014;2023-10-19T06:22:54;96595.40;;;23.65;52.09
52653;BME280;39353;42.864;12.014;2023-10-19T06:25:25;96598.36;;;23.64;51.70
52653;BME280;39353;42.864;12.014;2023-10-19T06:27:53;96599.35;;;23.65;51.67
52653;BME280;39353;42.864;12.014;2023-10-19T06:30:24;96608.92;;;23.65;51.62
52653;BME280;39353;42.864;12.014;2023-10-19T06:32:56;96603.23;;;23.64;51.79
52653;BME280;39353;42.864;12.014;2023-10-19T06:35:28;96611.52;;;23.65;51.68
52653;BME280;39353;42.864;12.014;2023-10-19T06:37:55;96619.11;;;23.65;51.71
52653;BME280;39353;42.864;12.014;2023-10-19T06:40:23;96613.64;;;23.65;51.65
52653;BME280;39353;42.864;12.014;2023-10-19T06:42:50;96616.42;;;23.65;51.90
52653;BME280;39353;42.864;12.014;2023-10-19T06:45:17;96623.21;;;23.64;51.87
52653;BME280;39353;42.864;12.014;2023-10-19T06:47:48;96624.91;;;23.63;52.05
52653;BME280;39353;42.864;12.014;2023-10-19T06:50:19;96623.55;;;23.63;51.90
52653;BME280;39353;42.864;12.014;2023-10-19T06:52:47;96617.62;;;23.64;51.93
52653;BME280;39353;42.864;12.014;2023-10-19T06:55:18;96620.41;;;23.63;51.91
52653;BME280;39353;42.864;12.014;2023-10-19T06:57:52;96611.19;;;23.59;52.01
52653;BME280;39353;42.864;12.014;2023-10-19T07:00:23;96609.46;;;23.62;52.06
52653;BME280;39353;42.864;12.014;2023-10-19T07:02:55;96621.40;;;23.63;52.02
52653;BME280;39353;42.864;12.014;2023-10-19T07:05:22;96625.30;;;23.66;52.28
52653;BME280;39353;42.864;12.014;2023-10-19T07:07:52;96626.15;;;23.69;51.99
52653;BME280;39353;42.864;12.014;2023-10-19T07:10:21;96628.51;;;23.71;51.85
52653;BME280;39353;42.864;12.014;2023-10-19T07:12:52;96631.90;;;23.74;52.00
52653;BME280;39353;42.864;12.014;2023-10-19T07:15:21;96634.59;;;23.74;51.90
52653;BME280;39353;42.864;12.014;2023-10-19T07:17:52;96633.89;;;23.76;51.99
52653;BME280;39353;42.864;12.014;2023-10-19T07:20:20;96632.94;;;23.78;52.02
52653;BME280;39353;42.864;12.014;2023-10-19T07:22:58;96625.20;;;23.78;52.23
52653;BME280;39353;42.864;12.014;2023-10-19T07:25:46;96621.98;;;23.82;52.36
52653;BME280;39353;42.864;12.014;2023-10-19T07:28:17;96619.81;;;23.88;52.15
52653;BME280;39353;42.864;12.014;2023-10-19T07:30:44;96620.39;;;23.92;52.35
52653;BME280;39353;42.864;12.014;2023-10-19T07:33:11;96621.61;;;23.96;52.34
52653;BME280;39353;42.864;12.014;2023-10-19T07:35:45;96611.77;;;24.00;52.27
52653;BME280;39353;42.864;12.014;2023-10-19T07:38:14;96611.85;;;24.02;52.35
52653;BME280;39353;42.864;12.014;2023-10-19T07:40:42;96610.11;;;24.05;52.53
52653;BME280;39353;42.864;12.014;2023-10-19T07:43:10;96603.10;;;24.07;52.86
52653;BME280;39353;42.864;12.014;2023-10-19T07:45:37;96613.25;;;24.10;52.84
52653;BME280;39353;42.864;12.014;2023-10-19T07:48:05;96604.80;;;24.12;52.89
52653;BME280;39353;42.864;12.014;2023-10-19T07:50:38;96607.08;;;24.15;53.38
52653;BME280;39353;42.864;12.014;2023-10-19T07:53:07;96607.17;;;24.15;54.25
52653;BME280;39353;42.864;12.014;2023-10-19T07:55:35;96603.56;;;24.13;54.36
52653;BME280;39353;42.864;12.014;2023-10-19T07:58:02;96607.45;;;24.15;55.05
52653;BME280;39353;42.864;12.014;2023-10-19T08:00:32;96607.89;;;24.16;55.66
52653;BME280;39353;42.864;12.014;2023-10-19T08:03:03;96606.47;;;24.15;56.06
52653;BME280;39353;42.864;12.014;2023-10-19T08:05:32;96607.23;;;24.16;55.72
52653;BME280;39353;42.864;12.014;2023-10-19T08:08:00;96608.19;;;24.20;55.76
52653;BME280;39353;42.864;12.014;2023-10-19T08:10:27;96605.02;;;24.21;55.93
52653;BME280;39353;42.864;12.014;2023-10-19T08:12:54;96597.42;;;24.15;54.86
52653;BME280;39353;42.864;12.014;2023-10-19T08:15:22;96600.91;;;24.12;54.45
52653;BME280;39353;42.864;12.014;2023-10-19T08:17:51;96602.14;;;24.14;55.26
52653;BME280;39353;42.864;12.014;2023-10-19T08:20:21;96598.92;;;24.21;55.70
52653;BME280;39353;42.864;12.014;2023-10-19T08:22:51;96589.61;;;24.26;56.35
52653;BME280;39353;42.864;12.014;2023-10-19T08:27:09;96577.03;;;24.38;56.62
52653;BME280;39353;42.864;12.014;2023-10-19T08:29:37;96585.96;;;24.40;57.50
52653;BME280;39353;42.864;12.014;2023-10-19T08:32:05;96581.19;;;24.40;57.94
52653;BME280;39353;42.864;12.014;2023-10-19T08:34:36;96580.27;;;24.39;58.13
52653;BME280;39353;42.864;12.014;2023-10-19T08:37:03;96584.05;;;24.40;57.39
52653;BME280;39353;42.864;12.014;2023-10-19T08:39:32;96582.56;;;24.41;57.55
52653;BME280;39353;42.864;12.014;2023-10-19T08:42:04;96583.77;;;24.41;57.63
52653;BME280;39353;42.864;12.014;2023-10-19T08:44:31;96572.86;;;24.43;57.15
52653;BME280;39353;42.864;12.014;2023-10-19T08:46:58;96571.77;;;24.42;57.07
52653;BME280;39353;42.864;12.014;2023-10-19T08:49:25;96566.21;;;24.32;56.02
52653;BME280;39353;42.864;12.014;2023-10-19T08:51:58;96565.20;;;24.17;56.10
52653;BME280;39353;42.864;12.014;2023-10-19T08:54:27;96563.14;;;24.05;56.47
52653;BME280;39353;42.864;12.014;2023-10-19T08:56:54;96554.16;;;23.95;56.77
52653;BME280;39353;42.864;12.014;2023-10-19T08:59:22;96552.00;;;23.90;56.89
52653;BME280;39353;42.864;12.014;2023-10-19T09:01:49;96553.39;;;23.95;57.04
52653;BME280;39353;42.864;12.014;2023-10-19T09:04:16;96552.42;;;24.00;57.18
52653;BME280;39353;42.864;12.014;2023-10-19T09:06:43;96559.13;;;24.03;57.07
52653;BME280;39353;42.864;12.014;2023-10-19T09:09:11;96556.07;;;24.04;57.29
52653;BME280;39353;42.864;12.014;2023-10-19T09:11:46;96549.45;;;24.05;57.23
52653;BME280;39353;42.864;12.014;2023-10-19T09:14:15;96550.74;;;24.05;57.05
52653;BME280;39353;42.864;12.014;2023-10-19T09:16:54;96543.20;;;24.07;57.08
52653;BME280;39353;42.864;12.014;2023-10-19T09:19:42;96550.89;;;24.10;57.13
52653;BME280;39353;42.864;12.014;2023-10-19T09:22:10;96548.04;;;24.13;56.71
52653;BME280;39353;42.864;12.014;2023-10-19T09:24:45;96535.33;;;24.15;56.63
52653;BME280;39353;42.864;12.014;2023-10-19T09:27:16;96524.70;;;24.16;56.73
52653;BME280;39353;42.864;12.014;2023-10-19T09:29:44;96527.38;;;24.15;56.84
52653;BME280;39353;42.864;12.014;2023-10-19T09:32:11;96525.63;;;24.17;57.03
52653;BME280;39353;42.864;12.014;2023-10-19T09:34:40;96534.34;;;24.17;56.77
52653;BME280;39353;42.864;12.014;2023-10-19T09:37:11;96532.20;;;24.18;56.48
52653;BME280;39353;42.864;12.014;2023-10-19T09:39:39;96523.55;;;24.18;56.59
52653;BME280;39353;42.864;12.014;2023-10-19T09:42:10;96515.38;;;24.17;56.51
52653;BME280;39353;42.864;12.014;2023-10-19T09:44:42;96516.04;;;24.15;56.47
52653;BME280;39353;42.864;12.014;2023-10-19T09:47:12;96519.16;;;24.15;56.25
52653;BME280;39353;42.864;12.014;2023-10-19T09:49:43;96510.93;;;24.15;56.16
52653;BME280;39353;42.864;12.014;2023-10-19T09:52:12;96512.79;;;24.14;56.25
52653;BME280;39353;42.864;12.014;2023-10-19T09:57:32;96494.31;;;24.13;56.05
52653;BME280;39353;42.864;12.014;2023-10-19T10:00:04;96494.92;;;24.14;56.02
52653;BME280;39353;42.864;12.014;2023-10-19T10:02:40;96484.94;;;24.11;55.78
52653;BME280;39353;42.864;12.014;2023-10-19T10:10:50;96480.61;;;24.11;55.82
52653;BME280;39353;42.864;12.014;2023-10-19T10:15:56;96480.17;;;24.10;55.86
52653;BME280;39353;42.864;12.014;2023-10-19T10:18:31;96475.30;;;24.12;56.03
52653;BME280;39353;42.864;12.014;2023-10-19T10:21:10;96466.74;;;24.12;56.03
52653;BME280;39353;42.864;12.014;2023-10-19T10:23:45;96457.54;;;24.12;55.69
52653;BME280;39353;42.864;12.014;2023-10-19T10:26:17;96464.17;;;24.12;55.83
52653;BME280;39353;42.864;12.014;2023-10-19T10:28:50;96453.10;;;24.12;55.67
52653;BME280;39353;42.864;12.014;2023-10-19T10:31:42;96445.98;;;24.10;55.69
52653;BME280;39353;42.864;12.014;2023-10-19T10:34:10;96453.76;;;24.11;55.63
52653;BME280;39353;42.864;12.014;2023-10-19T10:36:57;96459.45;;;24.11;55.44
52653;BME280;39353;42.864;12.014;2023-10-19T10:39:25;96456.02;;;24.12;55.55
52653;BME280;39353;42.864;12.014;2023-10-19T10:41:58;96455.63;;;24.12;55.16
52653;BME280;39353;42.864;12.014;2023-10-19T10:47:18;96451.56;;;24.13;55.05
52653;BME280;39353;42.864;12.014;2023-10-19T10:52:35;96453.92;;;24.09;54.87
52653;BME280;39353;42.864;12.014;2023-10-19T10:55:10;96443.46;;;24.08;54.78
52653;BME280;39353;42.864;12.014;2023-10-19T10:57:42;96441.92;;;24.11;54.67
52653;BME280;39353;42.864;12.014;2023-10-19T11:00:14;96432.11;;;24.13;54.88
52653;BME280;39353;42.864;12.014;2023-10-19T11:03:03;96425.31;;;24.15;54.83
52653;BME280;39353;42.864;12.014;2023-10-19T11:05:31;96419.29;;;24.18;54.74
52653;BME280;39353;42.864;12.014;2023-10-19T11:10:33;96407.51;;;24.22;55.34
52653;BME280;39353;42.864;12.014;2023-10-19T11:13:08;96392.27;;;24.24;55.36
52653;BME280;39353;42.864;12.014;2023-10-19T11:15:37;96386.33;;;24.24;55.22
52653;BME280;39353;42.864;12.014;2023-10-19T11:18:05;96395.92;;;24.25;55.44
52653;BME280;39353;42.864;12.014;2023-10-19T11:20:36;96387.76;;;24.25;55.19
52653;BME280;39353;42.864;12.014;2023-10-19T11:23:03;96380.58;;;24.26;55.21
52653;BME280;39353;42.864;12.014;2023-10-19T11:25:30;96387.64;;;24.25;54.79
52653;BME280;39353;42.864;12.014;2023-10-19T11:28:00;96383.38;;;24.22;54.93
52653;BME280;39353;42.864;12.014;2023-10-19T11:30:29;96388.15;;;24.22;54.67
52653;BME280;39353;42.864;12.014;2023-10-19T11:32:59;96393.96;;;24.22;54.85
52653;BME280;39353;42.864;12.014;2023-10-19T11:35:29;96393.80;;;24.22;54.91
52653;BME280;39353;42.864;12.014;2023-10-19T11:37:58;96390.06;;;24.23;54.81
52653;BME280;39353;42.864;12.014;2023-10-19T11:40:26;96393.64;;;24.22;54.86
52653;BME280;39353;42.864;12.014;2023-10-19T11:42:55;96394.45;;;24.23;54.80
52653;BME280;39353;42.864;12.014;2023-10-19T11:45:27;96399.93;;;24.23;54.62
52653;BME280;39353;42.864;12.014;2023-10-19T11:47:55;96397.35;;;24.23;54.60
52653;BME280;39353;42.864;12.014;2023-10-19T11:50:23;96399.38;;;24.23;54.61
52653;BME280;39353;42.864;12.014;2023-10-19T11:52:51;96406.28;;;24.23;54.64
52653;BME280;39353;42.864;12.014;2023-10-19T11:55:19;96408.64;;;24.23;54.62
52653;BME280;39353;42.864;12.014;2023-10-19T11:57:48;96401.25;;;24.23;54.57
52653;BME280;39353;42.864;12.014;2023-10-19T12:00:15;96404.98;;;24.22;54.58
52653;BME280;39353;42.864;12.014;2023-10-19T12:02:48;96404.82;;;24.22;54.41
52653;BME280;39353;42.864;12.014;2023-10-19T12:05:15;96401.15;;;24.22;54.61
52653;BME280;39353;42.864;12.014;2023-10-19T12:07:42;96403.67;;;24.22;54.48
52653;BME280;39353;42.864;12.014;2023-10-19T12:10:11;96397.26;;;24.22;54.13
52653;BME280;39353;42.864;12.014;2023-10-19T12:12:39;96392.60;;;24.20;54.06
52653;BME280;39353;42.864;12.014;2023-10-19T12:15:07;96391.72;;;24.19;54.22
52653;BME280;39353;42.864;12.014;2023-10-19T12:17:34;96390.56;;;24.18;54.19
52653;BME280;39353;42.864;12.014;2023-10-19T12:20:01;96393.91;;;24.19;54.08
52653;BME280;39353;42.864;12.014;2023-10-19T12:22:28;96387.00;;;24.19;54.07
52653;BME280;39353;42.864;12.014;2023-10-19T12:24:57;96391.34;;;24.18;54.06
52653;BME280;39353;42.864;12.014;2023-10-19T12:27:26;96399.18;;;24.19;54.02
52653;BME280;39353;42.864;12.014;2023-10-19T12:29:53;96406.09;;;24.19;54.00
52653;BME280;39353;42.864;12.014;2023-10-19T12:32:22;96399.78;;;24.20;53.94
52653;BME280;39353;42.864;12.014;2023-10-19T12:34:51;96394.30;;;24.19;53.89
52653;BME280;39353;42.864;12.014;2023-10-19T12:37:24;96401.37;;;24.20;54.00
52653;BME280;39353;42.864;12.014;2023-10-19T12:39:54;96409.54;;;24.20;53.91
52653;BME280;39353;42.864;12.014;2023-10-19T12:42:21;96409.36;;;24.21;54.00
52653;BME280;39353;42.864;12.014;2023-10-19T12:44:49;96415.08;;;24.22;53.93
52653;BME280;39353;42.864;12.014;2023-10-19T12:47:17;96411.23;;;24.23;53.68
52653;BME280;39353;42.864;12.014;2023-10-19T12:49:45;96403.11;;;24.24;53.81
52653;BME280;39353;42.864;12.014;2023-10-19T12:52:12;96398.71;;;24.25;53.77
52653;BME280;39353;42.864;12.014;2023-10-19T12:56:05;96406.51;;;24.33;53.70
52653;BME280;39353;42.864;12.014;2023-10-19T12:58:48;96404.09;;;24.35;53.75
52653;BME280;39353;42.864;12.014;2023-10-19T13:01:16;96398.13;;;24.34;53.44
52653;BME280;39353;42.864;12.014;2023-10-19T13:03:45;96397.29;;;24.37;53.58
52653;BME280;39353;42.864;12.014;2023-10-19T13:06:17;96394.64;;;24.39;53.39
52653;BME280;39353;42.864;12.014;2023-10-19T13:08:44;96389.61;;;24.41;53.64
52653;BME280;39353;42.864;12.014;2023-10-19T13:11:11;96386.92;;;24.43;53.40
52653;BME280;39353;42.864;12.014;2023-10-19T13:13:40;96383.63;;;24.45;53.46
52653;BME280;39353;42.864;12.014;2023-10-19T13:16:07;96377.60;;;24.47;53.23
52653;BME280;39353;42.864;12.014;2023-10-19T13:18:36;96366.96;;;24.47;53.25
52653;BME280;39353;42.864;12.014;2023-10-19T13:21:03;96359.22;;;24.48;53.21
52653;BME280;39353;42.864;12.014;2023-10-19T13:23:35;96352.52;;;24.51;53.11
52653;BME280;39353;42.864;12.014;2023-10-19T13:26:02;96350.81;;;24.51;53.13
52653;BME280;39353;42.864;12.014;2023-10-19T13:28:41;96342.47;;;24.52;53.25
52653;BME280;39353;42.864;12.014;2023-10-19T13:31:08;96338.08;;;24.54;53.20
52653;BME280;39353;42.864;12.014;2023-10-19T13:33:40;96331.29;;;24.53;53.12